sensor_id;sensor_type;location;lat;lon;timestamp;temperature;humidity
4566;DHT22;2295;51.050;14.608;2023-11-19T00:01:23;2.10;99.90
4566;DHT22;2295;51.050;14.608;2023-11-19T00:04:00;2.20;99.90
4566;DHT22;2295;51.050;14.608;2023-11-19T00:06:42;2.20;99.90
4566;DHT22;2295;51.050;14.608;2023-11-19T00:11:51;2.20;99.90
4566;DHT22;2295;51.050;14.608;2023-11-19T00:12:59;2.20;99.90
4566;DHT22;2295;51.050;14.608;2023-11-19T00:16:14;2.20;99.90
4566;DHT22;2295;51.050;14.608;2023-11-19T00:19:53;2.20;99.90
4566;DHT22;2295;51.050;14.608;2023-11-19T00:22:33;2.20;99.90
4566;DHT22;2295;51.050;14.608;2023-11-19T00:25:16;2.20;99.90
4566;DHT22;2295;51.050;14.608;2023-11-19T00:27:51;2.20;99.90
4566;DHT22;2295;51.050;14.608;2023-11-19T00:30:58;2.10;99.90
4566;DHT22;2295;51.050;14.608;2023-11-19T00:33:49;2.10;99.90
4566;DHT22;2295;51.050;14.608;2023-11-19T00:36:21;2.10;99.90
4566;DHT22;2295;51.050;14.608;2023-11-19T00:39:14;2.10;99.90
4566;DHT22;2295;51.050;14.608;2023-11-19T00:55:50;1.90;99.90
4566;DHT22;2295;51.050;14.608;2023-11-19T00:58:40;1.90;99.90
4566;DHT22;2295;51.050;14.608;2023-11-19T01:01:24;1.80;99.90
4566;DHT22;2295;51.050;14.608;2023-11-19T01:03:53;1.80;99.90
4566;DHT22;2295;51.050;14.608;2023-11-19T01:07:18;1.70;99.90
4566;DHT22;2295;51.050;14.608;2023-11-19T01:09:41;1.70;99.90
4566;DHT22;2295;51.050;14.608;2023-11-19T01:15:43;1.60;99.90
4566;DHT22;2295;51.050;14.608;2023-11-19T01:18:53;1.60;99.90
4566;DHT22;2295;51.050;14.608;2023-11-19T01:25:00;1.60;99.90
4566;DHT22;2295;51.050;14.608;2023-11-19T01:27:49;1.60;99.90
4566;DHT22;2295;51.050;14.608;2023-11-19T01:30:40;1.60;99.90
4566;DHT22;2295;51.050;14.608;2023-11-19T01:34:21;1.50;99.90
4566;DHT22;2295;51.050;14.608;2023-11-19T01:37:39;1.50;99.90
4566;DHT22;2295;51.050;14.608;2023-11-19T01:44:17;1.50;99.90
4566;DHT22;2295;51.050;14.608;2023-11-19T01:47:00;1.50;99.90
4566;DHT22;2295;51.050;14.608;2023-11-19T01:49:40;1.40;99.90
4566;DHT22;2295;51.050;14.608;2023-11-19T01:53:02;1.40;99.90
4566;DHT22;2295;51.050;14.608;2023-11-19T01:55:52;1.40;99.90
4566;DHT22;2295;51.050;14.608;2023-11-19T01:58:53;1.30;99.90
4566;DHT22;2295;51.050;14.608;2023-11-19T02:05:33;1.10;99.90
4566;DHT22;2295;51.050;14.608;2023-11-19T02:09:02;1.10;99.90
4566;DHT22;2295;51.050;14.608;2023-11-19T02:11:48;1.10;99.90
4566;DHT22;2295;51.050;14.608;2023-11-19T02:14:53;1.10;99.90
4566;DHT22;2295;51.050;14.608;2023-11-19T02:18:27;1.10;99.90
4566;DHT22;2295;51.050;14.608;2023-11-19T02:21:34;1.20;99.90
4566;DHT22;2295;51.050;14.608;2023-11-19T02:24:17;1.20;99.90
4566;DHT22;2295;51.050;14.608;2023-11-19T02:29:58;1.20;99.90
4566;DHT22;2295;51.050;14.608;2023-11-19T02:32:52;1.20;99.90
4566;DHT22;2295;51.050;14.608;2023-11-19T02:35:47;1.20;99.90
4566;DHT22;2295;51.050;14.608;2023-11-19T02:38:39;1.30;99.90
4566;DHT22;2295;51.050;14.608;2023-11-19T02:41:12;1.40;99.90
4566;DHT22;2295;51.050;14.608;2023-11-19T02:44:17;1.40;99.90
4566;DHT22;2295;51.050;14.608;2023-11-19T02:47:16;1.50;99.90
4566;DHT22;2295;51.050;14.608;2023-11-19T02:49:54;1.50;99.90
4566;DHT22;2295;51.050;14.608;2023-11-19T02:52:46;1.60;99.90
4566;DHT22;2295;51.050;14.608;2023-11-19T02:58:20;1.60;99.90
4566;DHT22;2295;51.050;14.608;2023-11-19T03:00:55;1.70;99.90
4566;DHT22;2295;51.050;14.608;2023-11-19T03:03:57;1.70;99.90
4566;DHT22;2295;51.050;14.608;2023-11-19T03:07:09;1.80;99.90
4566;DHT22;2295;51.050;14.608;2023-11-19T03:09:49;1.80;99.90
4566;DHT22;2295;51.050;14.608;2023-11-19T03:12:38;1.80;99.90
4566;DHT22;2295;51.050;14.608;2023-11-19T03:15:34;1.80;99.90
4566;DHT22;2295;51.050;14.608;2023-11-19T03:18:27;1.80;99.90
4566;DHT22;2295;51.050;14.608;2023-11-19T03:21:46;1.80;99.90
4566;DHT22;2295;51.050;14.608;2023-11-19T03:25:00;1.80;99.90
4566;DHT22;2295;51.050;14.608;2023-11-19T03:28:02;1.90;99.90
4566;DHT22;2295;51.050;14.608;2023-11-19T03:31:09;1.90;99.90
4566;DHT22;2295;51.050;14.608;2023-11-19T03:34:12;1.90;99.90
4566;DHT22;2295;51.050;14.608;2023-11-19T03:37:33;1.90;99.90
4566;DHT22;2295;51.050;14.608;2023-11-19T03:40:21;2.00;99.90
4566;DHT22;2295;51.050;14.608;2023-11-19T03:43:43;2.00;99.90
4566;DHT22;2295;51.050;14.608;2023-11-19T03:46:55;2.00;99.90
4566;DHT22;2295;51.050;14.608;2023-11-19T03:53:51;2.00;99.90
4566;DHT22;2295;51.050;14.608;2023-11-19T04:00:38;2.00;99.90
4566;DHT22;2295;51.050;14.608;2023-11-19T04:03:27;2.00;99.90
4566;DHT22;2295;51.050;14.608;2023-11-19T04:06:22;2.10;99.90
4566;DHT22;2295;51.050;14.608;2023-11-19T04:09:24;2.10;99.90
4566;DHT22;2295;51.050;14.608;2023-11-19T04:12:25;2.10;99.90
4566;DHT22;2295;51.050;14.608;2023-11-19T04:15:33;2.10;99.90
4566;DHT22;2295;51.050;14.608;2023-11-19T04:18:30;2.10;99.90
4566;DHT22;2295;51.050;14.608;2023-11-19T04:21:21;2.20;99.90
4566;DHT22;2295;51.050;14.608;2023-11-19T04:25:05;2.10;99.90
4566;DHT22;2295;51.050;14.608;2023-11-19T04:27:50;2.10;99.90
4566;DHT22;2295;51.050;14.608;2023-11-19T04:30:31;2.20;99.90
4566;DHT22;2295;51.050;14.608;2023-11-19T04:33:07;2.20;99.90
4566;DHT22;2295;51.050;14.608;2023-11-19T04:36:54;2.20;99.90
4566;DHT22;2295;51.050;14.608;2023-11-19T04:39:31;2.20;99.90
4566;DHT22;2295;51.050;14.608;2023-11-19T04:42:17;2.30;99.90
4566;DHT22;2295;51.050;14.608;2023-11-19T04:45:06;2.30;99.90
4566;DHT22;2295;51.050;14.608;2023-11-19T04:47:43;2.30;99.90
4566;DHT22;2295;51.050;14.608;2023-11-19T04:50:58;2.30;99.90
4566;DHT22;2295;51.050;14.608;2023-11-19T04:54:05;2.30;99.90
4566;DHT22;2295;51.050;14.608;2023-11-19T04:57:15;2.30;99.90
4566;DHT22;2295;51.050;14.608;2023-11-19T05:00:45;2.30;99.90
4566;DHT22;2295;51.050;14.608;2023-11-19T05:03:37;2.30;99.90
4566;DHT22;2295;51.050;14.608;2023-11-19T05:06:39;2.30;99.90
4566;DHT22;2295;51.050;14.608;2023-11-19T05:09:16;2.30;99.90
4566;DHT22;2295;51.050;14.608;2023-11-19T05:11:57;2.30;99.90
4566;DHT22;2295;51.050;14.608;2023-11-19T05:14:34;2.30;99.90
4566;DHT22;2295;51.050;14.608;2023-11-19T05:17:20;2.30;99.90
4566;DHT22;2295;51.050;14.608;2023-11-19T05:20:09;2.30;99.90
4566;DHT22;2295;51.050;14.608;2023-11-19T05:26:39;2.20;99.90
4566;DHT22;2295;51.050;14.608;2023-11-19T05:29:38;2.20;99.90
4566;DHT22;2295;51.050;14.608;2023-11-19T05:32:29;2.20;99.90
4566;DHT22;2295;51.050;14.608;2023-11-19T05:38:36;2.10;99.90
4566;DHT22;2295;51.050;14.608;2023-11-19T05:43:38;2.10;99.90
4566;DHT22;2295;51.050;14.608;2023-11-19T05:45:25;2.20;99.90
4566;DHT22;2295;51.050;14.608;2023-11-19T05:48:31;2.20;99.90
4566;DHT22;2295;51.050;14.608;2023-11-19T05:51:46;2.10;99.90
4566;DHT22;2295;51.050;14.608;2023-11-19T05:54:29;2.10;99.90
4566;DHT22;2295;51.050;14.608;2023-11-19T06:00:30;2.10;99.90
4566;DHT22;2295;51.050;14.608;2023-11-19T06:03:21;2.10;99.90
4566;DHT22;2295;51.050;14.608;2023-11-19T06:06:06;2.10;99.90
4566;DHT22;2295;51.050;14.608;2023-11-19T06:08:44;2.10;99.90
4566;DHT22;2295;51.050;14.608;2023-11-19T06:11:25;2.10;99.90
4566;DHT22;2295;51.050;14.608;2023-11-19T06:14:44;2.20;99.90
4566;DHT22;2295;51.050;14.608;2023-11-19T06:18:06;2.20;99.90
4566;DHT22;2295;51.050;14.608;2023-11-19T06:21:03;2.10;99.90
4566;DHT22;2295;51.050;14.608;2023-11-19T06:24:32;2.20;99.90
4566;DHT22;2295;51.050;14.608;2023-11-19T06:27:41;2.20;99.90
4566;DHT22;2295;51.050;14.608;2023-11-19T06:30:33;2.10;99.90
4566;DHT22;2295;51.050;14.608;2023-11-19T06:33:28;2.20;99.90
4566;DHT22;2295;51.050;14.608;2023-11-19T06:36:15;2.20;99.90
4566;DHT22;2295;51.050;14.608;2023-11-19T06:39:02;2.20;99.90
4566;DHT22;2295;51.050;14.608;2023-11-19T06:41:49;2.20;99.90
4566;DHT22;2295;51.050;14.608;2023-11-19T06:44:47;2.20;99.90
4566;DHT22;2295;51.050;14.608;2023-11-19T06:48:03;2.20;99.90
4566;DHT22;2295;51.050;14.608;2023-11-19T06:50:53;2.20;99.90
4566;DHT22;2295;51.050;14.608;2023-11-19T06:53:31;2.30;99.90
4566;DHT22;2295;51.050;14.608;2023-11-19T06:56:23;2.20;99.90
4566;DHT22;2295;51.050;14.608;2023-11-19T06:59:12;2.30;99.90
4566;DHT22;2295;51.050;14.608;2023-11-19T07:01:50;2.30;99.90
4566;DHT22;2295;51.050;14.608;2023-11-19T07:08:05;2.30;99.90
4566;DHT22;2295;51.050;14.608;2023-11-19T07:11:00;2.40;99.90
4566;DHT22;2295;51.050;14.608;2023-11-19T07:13:56;2.40;99.90
4566;DHT22;2295;51.050;14.608;2023-11-19T07:17:02;2.40;99.90
4566;DHT22;2295;51.050;14.608;2023-11-19T07:23:26;2.50;99.90
4566;DHT22;2295;51.050;14.608;2023-11-19T07:33:04;2.50;99.90
4566;DHT22;2295;51.050;14.608;2023-11-19T07:36:26;2.50;99.90
4566;DHT22;2295;51.050;14.608;2023-11-19T07:39:11;2.60;99.90
4566;DHT22;2295;51.050;14.608;2023-11-19T07:41:44;2.60;99.90
4566;DHT22;2295;51.050;14.608;2023-11-19T07:44:19;2.60;99.90
4566;DHT22;2295;51.050;14.608;2023-11-19T07:47:06;2.60;99.90
4566;DHT22;2295;51.050;14.608;2023-11-19T07:49:39;2.70;99.90
4566;DHT22;2295;51.050;14.608;2023-11-19T07:52:15;2.70;99.90
4566;DHT22;2295;51.050;14.608;2023-11-19T07:55:02;2.70;99.90
4566;DHT22;2295;51.050;14.608;2023-11-19T07:57:37;2.70;99.90
4566;DHT22;2295;51.050;14.608;2023-11-19T08:00:16;2.70;99.90
4566;DHT22;2295;51.050;14.608;2023-11-19T08:02:54;2.70;99.90
4566;DHT22;2295;51.050;14.608;2023-11-19T08:05:37;2.70;99.90
4566;DHT22;2295;51.050;14.608;2023-11-19T08:11:37;2.70;99.90
4566;DHT22;2295;51.050;14.608;2023-11-19T08:14:56;2.70;99.90
4566;DHT22;2295;51.050;14.608;2023-11-19T08:17:37;2.80;99.90
4566;DHT22;2295;51.050;14.608;2023-11-19T08:20:10;2.80;99.90
4566;DHT22;2295;51.050;14.608;2023-11-19T08:22:44;2.80;99.90
4566;DHT22;2295;51.050;14.608;2023-11-19T08:25:32;2.80;99.90
4566;DHT22;2295;51.050;14.608;2023-11-19T08:28:37;2.90;99.90
4566;DHT22;2295;51.050;14.608;2023-11-19T08:31:28;2.90;99.90
4566;DHT22;2295;51.050;14.608;2023-11-19T08:34:43;3.00;99.90
4566;DHT22;2295;51.050;14.608;2023-11-19T08:37:13;3.00;99.90
4566;DHT22;2295;51.050;14.608;2023-11-19T08:39:44;3.00;99.90
4566;DHT22;2295;51.050;14.608;2023-11-19T08:42:28;3.00;99.90
4566;DHT22;2295;51.050;14.608;2023-11-19T08:45:13;3.00;99.90
4566;DHT22;2295;51.050;14.608;2023-11-19T08:50:41;3.20;99.90
4566;DHT22;2295;51.050;14.608;2023-11-19T08:53:22;3.20;99.90
4566;DHT22;2295;51.050;14.608;2023-11-19T08:56:00;3.20;99.90
4566;DHT22;2295;51.050;14.608;2023-11-19T09:08:12;3.40;99.90
4566;DHT22;2295;51.050;14.608;2023-11-19T09:10:50;3.40;99.90
4566;DHT22;2295;51.050;14.608;2023-11-19T09:13:41;3.50;99.90
4566;DHT22;2295;51.050;14.608;2023-11-19T09:16:17;3.70;99.90
4566;DHT22;2295;51.050;14.608;2023-11-19T09:18:48;3.80;99.90
4566;DHT22;2295;51.050;14.608;2023-11-19T09:21:20;3.90;99.90
4566;DHT22;2295;51.050;14.608;2023-11-19T09:23:54;3.90;99.90
4566;DHT22;2295;51.050;14.608;2023-11-19T09:26:32;3.90;99.90
4566;DHT22;2295;51.050;14.608;2023-11-19T09:29:09;4.10;99.90
4566;DHT22;2295;51.050;14.608;2023-11-19T09:31:46;4.30;99.90
4566;DHT22;2295;51.050;14.608;2023-11-19T09:34:19;4.40;99.90
4566;DHT22;2295;51.050;14.608;2023-11-19T09:36:48;4.50;99.90
4566;DHT22;2295;51.050;14.608;2023-11-19T09:39:16;4.60;99.90
4566;DHT22;2295;51.050;14.608;2023-11-19T09:41:48;4.70;99.90
4566;DHT22;2295;51.050;14.608;2023-11-19T09:44:17;4.90;99.90
4566;DHT22;2295;51.050;14.608;2023-11-19T09:46:46;5.00;99.90
4566;DHT22;2295;51.050;14.608;2023-11-19T09:49:19;5.00;99.90
4566;DHT22;2295;51.050;14.608;2023-11-19T09:52:05;5.00;99.90
4566;DHT22;2295;51.050;14.608;2023-11-19T09:54:36;4.90;99.90
4566;DHT22;2295;51.050;14.608;2023-11-19T09:57:07;4.90;99.90
4566;DHT22;2295;51.050;14.608;2023-11-19T09:59:40;4.80;99.90
4566;DHT22;2295;51.050;14.608;2023-11-19T10:02:09;4.80;99.90
4566;DHT22;2295;51.050;14.608;2023-11-19T10:04:43;4.80;99.90
4566;DHT22;2295;51.050;14.608;2023-11-19T10:07:14;4.80;99.90
4566;DHT22;2295;51.050;14.608;2023-11-19T10:09:48;4.80;99.90
4566;DHT22;2295;51.050;14.608;2023-11-19T10:12:16;4.90;99.90
4566;DHT22;2295;51.050;14.608;2023-11-19T10:14:48;5.10;99.90
4566;DHT22;2295;51.050;14.608;2023-11-19T10:17:18;5.20;99.90
4566;DHT22;2295;51.050;14.608;2023-11-19T10:19:48;5.30;99.90
4566;DHT22;2295;51.050;14.608;2023-11-19T10:22:19;5.40;99.90
4566;DHT22;2295;51.050;14.608;2023-11-19T10:24:48;5.50;99.90
4566;DHT22;2295;51.050;14.608;2023-11-19T10:27:24;5.50;99.90
4566;DHT22;2295;51.050;14.608;2023-11-19T10:29:59;5.50;99.90
4566;DHT22;2295;51.050;14.608;2023-11-19T10:32:28;5.60;99.90
4566;DHT22;2295;51.050;14.608;2023-11-19T10:35:09;5.60;99.90
4566;DHT22;2295;51.050;14.608;2023-11-19T10:37:46;5.70;99.90
4566;DHT22;2295;51.050;14.608;2023-11-19T10:40:15;5.70;99.90
4566;DHT22;2295;51.050;14.608;2023-11-19T10:42:44;5.80;99.90
4566;DHT22;2295;51.050;14.608;2023-11-19T10:45:22;5.80;99.90
4566;DHT22;2295;51.050;14.608;2023-11-19T10:47:51;5.80;99.90
4566;DHT22;2295;51.050;14.608;2023-11-19T10:50:24;5.70;99.90
4566;DHT22;2295;51.050;14.608;2023-11-19T10:52:56;5.70;99.90
4566;DHT22;2295;51.050;14.608;2023-11-19T10:55:29;5.70;99.90
4566;DHT22;2295;51.050;14.608;2023-11-19T10:58:00;5.70;99.90
4566;DHT22;2295;51.050;14.608;2023-11-19T11:00:29;5.60;99.90
4566;DHT22;2295;51.050;14.608;2023-11-19T11:03:01;5.70;99.90
4566;DHT22;2295;51.050;14.608;2023-11-19T11:05:32;5.70;99.90
4566;DHT22;2295;51.050;14.608;2023-11-19T11:08:03;5.70;99.90
4566;DHT22;2295;51.050;14.608;2023-11-19T11:10:38;5.80;99.90
4566;DHT22;2295;51.050;14.608;2023-11-19T11:13:25;5.90;99.90
4566;DHT22;2295;51.050;14.608;2023-11-19T11:15:56;6.00;99.90
4566;DHT22;2295;51.050;14.608;2023-11-19T11:18:25;6.00;99.90
4566;DHT22;2295;51.050;14.608;2023-11-19T11:20:59;6.10;99.90
4566;DHT22;2295;51.050;14.608;2023-11-19T11:23:50;6.20;99.90
4566;DHT22;2295;51.050;14.608;2023-11-19T11:29:20;6.30;99.90
4566;DHT22;2295;51.050;14.608;2023-11-19T11:31:58;6.40;99.90
4566;DHT22;2295;51.050;14.608;2023-11-19T11:34:41;6.40;99.90
4566;DHT22;2295;51.050;14.608;2023-11-19T11:37:17;6.30;99.90
4566;DHT22;2295;51.050;14.608;2023-11-19T11:39:46;6.30;99.90
4566;DHT22;2295;51.050;14.608;2023-11-19T11:42:35;6.40;99.90
4566;DHT22;2295;51.050;14.608;2023-11-19T11:45:05;6.40;99.90
4566;DHT22;2295;51.050;14.608;2023-11-19T11:48:10;6.50;99.90
4566;DHT22;2295;51.050;14.608;2023-11-19T11:53:58;6.60;99.90
4566;DHT22;2295;51.050;14.608;2023-11-19T11:56:33;6.70;99.90
4566;DHT22;2295;51.050;14.608;2023-11-19T11:59:01;6.70;99.90
4566;DHT22;2295;51.050;14.608;2023-11-19T12:01:30;6.60;99.90
4566;DHT22;2295;51.050;14.608;2023-11-19T12:03:58;6.60;99.90
4566;DHT22;2295;51.050;14.608;2023-11-19T12:06:27;6.70;99.90
4566;DHT22;2295;51.050;14.608;2023-11-19T12:09:02;6.90;99.90
4566;DHT22;2295;51.050;14.608;2023-11-19T12:11:30;6.90;99.90
4566;DHT22;2295;51.050;14.608;2023-11-19T12:14:02;6.90;99.90
4566;DHT22;2295;51.050;14.608;2023-11-19T12:16:33;6.80;99.90
4566;DHT22;2295;51.050;14.608;2023-11-19T12:19:05;6.70;99.90
4566;DHT22;2295;51.050;14.608;2023-11-19T12:21:35;6.70;99.90
4566;DHT22;2295;51.050;14.608;2023-11-19T12:24:07;6.70;99.90
4566;DHT22;2295;51.050;14.608;2023-11-19T12:26:37;6.70;99.90
4566;DHT22;2295;51.050;14.608;2023-11-19T12:29:06;6.80;99.90
4566;DHT22;2295;51.050;14.608;2023-11-19T12:31:36;7.00;99.90
4566;DHT22;2295;51.050;14.608;2023-11-19T12:34:09;7.30;99.90
4566;DHT22;2295;51.050;14.608;2023-11-19T12:36:41;7.40;99.90
4566;DHT22;2295;51.050;14.608;2023-11-19T12:39:13;7.50;99.90
4566;DHT22;2295;51.050;14.608;2023-11-19T12:41:54;7.50;99.90
4566;DHT22;2295;51.050;14.608;2023-11-19T12:44:26;7.50;99.90
4566;DHT22;2295;51.050;14.608;2023-11-19T12:47:01;7.50;99.90
4566;DHT22;2295;51.050;14.608;2023-11-19T12:49:30;7.60;99.90
4566;DHT22;2295;51.050;14.608;2023-11-19T12:51:59;7.30;99.90
4566;DHT22;2295;51.050;14.608;2023-11-19T12:54:39;7.20;99.90
4566;DHT22;2295;51.050;14.608;2023-11-19T12:57:08;7.10;99.90
4566;DHT22;2295;51.050;14.608;2023-11-19T12:59:39;7.10;99.90
4566;DHT22;2295;51.050;14.608;2023-11-19T13:02:07;7.10;99.90
4566;DHT22;2295;51.050;14.608;2023-11-19T13:04:36;7.10;99.90
4566;DHT22;2295;51.050;14.608;2023-11-19T13:07:04;7.10;99.90
4566;DHT22;2295;51.050;14.608;2023-11-19T13:09:33;7.00;99.90
4566;DHT22;2295;51.050;14.608;2023-11-19T13:12:13;7.00;99.90
4566;DHT22;2295;51.050;14.608;2023-11-19T13:14:42;7.00;99.90
4566;DHT22;2295;51.050;14.608;2023-11-19T13:17:16;6.90;99.90
4566;DHT22;2295;51.050;14.608;2023-11-19T13:19:47;6.90;99.90
4566;DHT22;2295;51.050;14.608;2023-11-19T13:22:18;6.90;99.90
4566;DHT22;2295;51.050;14.608;2023-11-19T13:24:46;6.90;99.90
4566;DHT22;2295;51.050;14.608;2023-11-19T13:27:16;6.80;99.90
4566;DHT22;2295;51.050;14.608;2023-11-19T13:29:45;6.80;99.90
4566;DHT22;2295;51.050;14.608;2023-11-19T13:32:16;6.90;99.90
4566;DHT22;2295;51.050;14.608;2023-11-19T13:34:44;6.90;99.90
4566;DHT22;2295;51.050;14.608;2023-11-19T13:37:13;7.00;99.90
4566;DHT22;2295;51.050;14.608;2023-11-19T13:39:42;7.00;99.90
4566;DHT22;2295;51.050;14.608;2023-11-19T13:42:10;7.00;99.90
4566;DHT22;2295;51.050;14.608;2023-11-19T13:44:41;7.10;99.90
4566;DHT22;2295;51.050;14.608;2023-11-19T13:47:10;7.20;99.90
4566;DHT22;2295;51.050;14.608;2023-11-19T13:49:41;7.20;99.90
4566;DHT22;2295;51.050;14.608;2023-11-19T13:52:09;7.20;99.90
4566;DHT22;2295;51.050;14.608;2023-11-19T13:54:38;7.20;99.90
4566;DHT22;2295;51.050;14.608;2023-11-19T13:57:07;7.10;99.90
4566;DHT22;2295;51.050;14.608;2023-11-19T13:59:41;7.10;99.90
4566;DHT22;2295;51.050;14.608;2023-11-19T14:02:09;7.20;99.90
4566;DHT22;2295;51.050;14.608;2023-11-19T14:04:38;7.20;99.90
4566;DHT22;2295;51.050;14.608;2023-11-19T14:07:06;7.20;99.90
4566;DHT22;2295;51.050;14.608;2023-11-19T14:09:35;7.10;99.90
4566;DHT22;2295;51.050;14.608;2023-11-19T14:12:04;7.00;99.90
4566;DHT22;2295;51.050;14.608;2023-11-19T14:14:36;6.90;99.90
4566;DHT22;2295;51.050;14.608;2023-11-19T14:17:07;6.90;99.90
4566;DHT22;2295;51.050;14.608;2023-11-19T14:19:41;6.90;99.90
4566;DHT22;2295;51.050;14.608;2023-11-19T14:22:09;6.90;99.90
4566;DHT22;2295;51.050;14.608;2023-11-19T14:24:38;6.80;99.90
4566;DHT22;2295;51.050;14.608;2023-11-19T14:27:09;6.80;99.90
4566;DHT22;2295;51.050;14.608;2023-11-19T14:29:37;6.80;99.90
4566;DHT22;2295;51.050;14.608;2023-11-19T14:32:08;6.80;99.90
4566;DHT22;2295;51.050;14.608;2023-11-19T14:34:36;6.80;99.90
4566;DHT22;2295;51.050;14.608;2023-11-19T14:37:05;6.80;99.90
4566;DHT22;2295;51.050;14.608;2023-11-19T14:39:33;6.90;99.90
4566;DHT22;2295;51.050;14.608;2023-11-19T14:42:02;6.90;99.90
4566;DHT22;2295;51.050;14.608;2023-11-19T14:44:32;7.00;99.90
4566;DHT22;2295;51.050;14.608;2023-11-19T14:47:01;7.00;99.90
4566;DHT22;2295;51.050;14.608;2023-11-19T14:49:31;6.90;99.90
4566;DHT22;2295;51.050;14.608;2023-11-19T14:52:00;6.90;99.90
4566;DHT22;2295;51.050;14.608;2023-11-19T14:54:31;6.80;99.90
4566;DHT22;2295;51.050;14.608;2023-11-19T14:56:59;6.70;99.90
4566;DHT22;2295;51.050;14.608;2023-11-19T14:59:28;6.50;99.90
4566;DHT22;2295;51.050;14.608;2023-11-19T15:01:56;6.50;99.90
4566;DHT22;2295;51.050;14.608;2023-11-19T15:04:25;6.50;99.90
4566;DHT22;2295;51.050;14.608;2023-11-19T15:06:56;6.50;99.90
4566;DHT22;2295;51.050;14.608;2023-11-19T15:09:25;6.40;99.90
4566;DHT22;2295;51.050;14.608;2023-11-19T15:11:54;6.50;99.90
4566;DHT22;2295;51.050;14.608;2023-11-19T15:14:25;6.50;99.90
4566;DHT22;2295;51.050;14.608;2023-11-19T15:16:53;6.40;99.90
4566;DHT22;2295;51.050;14.608;2023-11-19T15:19:22;6.40;99.90
4566;DHT22;2295;51.050;14.608;2023-11-19T15:21:50;6.40;99.90
4566;DHT22;2295;51.050;14.608;2023-11-19T15:24:20;6.40;99.90
4566;DHT22;2295;51.050;14.608;2023-11-19T15:26:49;6.40;99.90
4566;DHT22;2295;51.050;14.608;2023-11-19T15:29:17;6.40;99.90
4566;DHT22;2295;51.050;14.608;2023-11-19T15:31:47;6.40;99.90
4566;DHT22;2295;51.050;14.608;2023-11-19T15:34:16;6.40;99.90
4566;DHT22;2295;51.050;14.608;2023-11-19T15:36:46;6.40;99.90
4566;DHT22;2295;51.050;14.608;2023-11-19T15:39:15;6.30;99.90
4566;DHT22;2295;51.050;14.608;2023-11-19T15:41:48;6.30;99.90
4566;DHT22;2295;51.050;14.608;2023-11-19T15:44:16;6.30;99.90
4566;DHT22;2295;51.050;14.608;2023-11-19T15:46:44;6.50;99.90
4566;DHT22;2295;51.050;14.608;2023-11-19T15:49:13;6.50;99.90
4566;DHT22;2295;51.050;14.608;2023-11-19T15:51:41;6.50;99.90
4566;DHT22;2295;51.050;14.608;2023-11-19T15:54:10;6.50;99.90
4566;DHT22;2295;51.050;14.608;2023-11-19T15:56:40;6.50;99.90
4566;DHT22;2295;51.050;14.608;2023-11-19T15:59:13;6.40;99.90
4566;DHT22;2295;51.050;14.608;2023-11-19T16:01:41;6.40;99.90
4566;DHT22;2295;51.050;14.608;2023-11-19T16:04:10;6.30;99.90
4566;DHT22;2295;51.050;14.608;2023-11-19T16:06:38;6.20;99.90
4566;DHT22;2295;51.050;14.608;2023-11-19T16:09:10;6.10;99.90
4566;DHT22;2295;51.050;14.608;2023-11-19T16:11:42;6.00;99.90
4566;DHT22;2295;51.050;14.608;2023-11-19T16:14:26;6.00;99.90
4566;DHT22;2295;51.050;14.608;2023-11-19T16:16:58;5.90;99.90
4566;DHT22;2295;51.050;14.608;2023-11-19T16:19:27;5.80;99.90
4566;DHT22;2295;51.050;14.608;2023-11-19T16:21:55;5.80;99.90
4566;DHT22;2295;51.050;14.608;2023-11-19T16:24:24;5.90;99.90
4566;DHT22;2295;51.050;14.608;2023-11-19T16:26:52;6.10;99.90
4566;DHT22;2295;51.050;14.608;2023-11-19T16:29:21;6.10;99.90
4566;DHT22;2295;51.050;14.608;2023-11-19T16:31:51;6.10;99.90
4566;DHT22;2295;51.050;14.608;2023-11-19T16:34:19;6.20;99.90
4566;DHT22;2295;51.050;14.608;2023-11-19T16:36:50;6.10;99.90
4566;DHT22;2295;51.050;14.608;2023-11-19T16:39:19;6.10;99.90
4566;DHT22;2295;51.050;14.608;2023-11-19T16:41:47;5.90;99.90
4566;DHT22;2295;51.050;14.608;2023-11-19T16:44:16;5.90;99.90
4566;DHT22;2295;51.050;14.608;2023-11-19T16:46:44;5.80;99.90
4566;DHT22;2295;51.050;14.608;2023-11-19T16:49:14;5.70;99.90
4566;DHT22;2295;51.050;14.608;2023-11-19T16:51:49;5.70;99.90
4566;DHT22;2295;51.050;14.608;2023-11-19T16:54:18;5.70;99.90
4566;DHT22;2295;51.050;14.608;2023-11-19T16:56:47;5.70;99.90
4566;DHT22;2295;51.050;14.608;2023-11-19T16:59:15;5.70;99.90
4566;DHT22;2295;51.050;14.608;2023-11-19T17:01:44;5.70;99.90
4566;DHT22;2295;51.050;14.608;2023-11-19T17:04:15;5.80;99.90
4566;DHT22;2295;51.050;14.608;2023-11-19T17:06:44;5.80;99.90
4566;DHT22;2295;51.050;14.608;2023-11-19T17:09:14;5.70;99.90
4566;DHT22;2295;51.050;14.608;2023-11-19T17:11:42;5.70;99.90
4566;DHT22;2295;51.050;14.608;2023-11-19T17:14:14;5.70;99.90
4566;DHT22;2295;51.050;14.608;2023-11-19T17:16:42;5.70;99.90
4566;DHT22;2295;51.050;14.608;2023-11-19T17:19:11;5.80;99.90
4566;DHT22;2295;51.050;14.608;2023-11-19T17:21:41;5.70;99.90
4566;DHT22;2295;51.050;14.608;2023-11-19T17:24:10;5.70;99.90
4566;DHT22;2295;51.050;14.608;2023-11-19T17:26:38;5.70;99.90
4566;DHT22;2295;51.050;14.608;2023-11-19T17:29:10;5.70;99.90
4566;DHT22;2295;51.050;14.608;2023-11-19T17:31:38;5.80;99.90
4566;DHT22;2295;51.050;14.608;2023-11-19T17:34:11;5.80;99.90
4566;DHT22;2295;51.050;14.608;2023-11-19T17:36:41;5.90;99.90
4566;DHT22;2295;51.050;14.608;2023-11-19T17:39:10;6.00;99.90
4566;DHT22;2295;51.050;14.608;2023-11-19T17:41:41;6.10;99.90
4566;DHT22;2295;51.050;14.608;2023-11-19T17:44:12;6.20;99.90
4566;DHT22;2295;51.050;14.608;2023-11-19T17:46:41;6.30;99.90
4566;DHT22;2295;51.050;14.608;2023-11-19T17:49:09;6.30;99.90
4566;DHT22;2295;51.050;14.608;2023-11-19T17:51:38;6.30;99.90
4566;DHT22;2295;51.050;14.608;2023-11-19T17:54:09;6.40;99.90
4566;DHT22;2295;51.050;14.608;2023-11-19T17:56:38;6.30;99.90
4566;DHT22;2295;51.050;14.608;2023-11-19T17:59:06;6.20;99.90
4566;DHT22;2295;51.050;14.608;2023-11-19T18:01:35;6.10;99.90
4566;DHT22;2295;51.050;14.608;2023-11-19T18:04:05;6.10;99.90
4566;DHT22;2295;51.050;14.608;2023-11-19T18:06:37;6.00;99.90
4566;DHT22;2295;51.050;14.608;2023-11-19T18:09:09;6.00;99.90
4566;DHT22;2295;51.050;14.608;2023-11-19T18:11:37;6.00;99.90
4566;DHT22;2295;51.050;14.608;2023-11-19T18:14:06;6.00;99.90
4566;DHT22;2295;51.050;14.608;2023-11-19T18:16:39;5.90;99.90
4566;DHT22;2295;51.050;14.608;2023-11-19T18:19:11;5.90;99.90
4566;DHT22;2295;51.050;14.608;2023-11-19T18:21:39;5.90;99.90
4566;DHT22;2295;51.050;14.608;2023-11-19T18:24:09;5.80;99.90
4566;DHT22;2295;51.050;14.608;2023-11-19T18:26:38;5.90;99.90
4566;DHT22;2295;51.050;14.608;2023-11-19T18:29:09;5.90;99.90
4566;DHT22;2295;51.050;14.608;2023-11-19T18:31:39;5.90;99.90
4566;DHT22;2295;51.050;14.608;2023-11-19T18:34:10;6.00;99.90
4566;DHT22;2295;51.050;14.608;2023-11-19T18:36:39;6.00;99.90
4566;DHT22;2295;51.050;14.608;2023-11-19T18:39:09;6.10;99.90
4566;DHT22;2295;51.050;14.608;2023-11-19T18:41:39;6.10;99.90
4566;DHT22;2295;51.050;14.608;2023-11-19T18:44:08;6.20;99.90
4566;DHT22;2295;51.050;14.608;2023-11-19T18:46:36;6.30;99.90
4566;DHT22;2295;51.050;14.608;2023-11-19T18:49:05;6.30;99.90
4566;DHT22;2295;51.050;14.608;2023-11-19T18:51:36;6.40;99.90
4566;DHT22;2295;51.050;14.608;2023-11-19T18:54:05;6.40;99.90
4566;DHT22;2295;51.050;14.608;2023-11-19T18:56:35;6.50;99.90